createdAt,value
2023-07-14T00:01:01.320Z,98787.81
2023-07-14T00:03:30.964Z,98786.31
2023-07-14T00:06:00.901Z,98793.44
2023-07-14T00:08:32.386Z,98789.97
2023-07-14T00:11:02.052Z,98784.81
2023-07-14T00:13:31.599Z,98788.28
2023-07-14T00:16:01.600Z,98788.00
2023-07-14T00:18:31.599Z,98784.41
2023-07-14T00:21:01.710Z,98788.72
2023-07-14T00:23:31.455Z,98792.31
2023-07-14T00:26:01.320Z,98790.97
2023-07-14T00:28:30.791Z,98791.81
2023-07-14T00:31:00.629Z,98782.88
2023-07-14T00:33:31.429Z,98785.88
2023-07-14T00:36:00.866Z,98783.72
2023-07-14T00:38:30.594Z,98773.00
2023-07-14T00:40:59.714Z,98771.84
2023-07-14T00:43:31.563Z,98774.34
2023-07-14T00:46:01.044Z,98779.47
2023-07-14T00:48:31.062Z,98780.94
2023-07-14T00:51:07.379Z,98783.31
2023-07-14T00:53:41.247Z,98792.78
2023-07-14T00:56:13.037Z,98790.72
2023-07-14T00:58:44.804Z,98790.34
2023-07-14T01:01:13.078Z,98787.22
2023-07-14T01:03:44.800Z,98787.00
2023-07-14T01:06:16.195Z,98785.75
2023-07-14T01:08:56.510Z,98785.66
2023-07-14T01:11:39.368Z,98791.66
2023-07-14T01:14:10.138Z,98783.56
2023-07-14T01:16:38.806Z,98790.19
2023-07-14T01:19:20.453Z,98787.47
2023-07-14T01:21:51.292Z,98790.88
2023-07-14T01:24:24.700Z,98792.16
2023-07-14T01:27:06.540Z,98793.44
2023-07-14T01:29:35.834Z,98790.41
2023-07-14T01:32:05.033Z,98787.34
2023-07-14T01:34:34.839Z,98796.78
2023-07-14T01:37:08.955Z,98796.50
2023-07-14T01:39:38.259Z,98801.34
2023-07-14T01:42:09.621Z,98807.13
2023-07-14T01:44:39.745Z,98804.25
2023-07-14T01:47:11.003Z,98797.91
2023-07-14T01:49:41.214Z,98804.13
2023-07-14T01:52:15.224Z,98796.50
2023-07-14T01:54:52.480Z,98799.75
2023-07-14T01:57:23.529Z,98813.63
2023-07-14T02:00:07.984Z,98809.88
2023-07-14T02:02:43.714Z,98807.56
2023-07-14T02:05:26.481Z,98809.88
2023-07-14T02:08:00.646Z,98812.13
2023-07-14T02:10:29.448Z,98818.06
2023-07-14T02:12:58.946Z,98823.19
2023-07-14T02:15:35.416Z,98818.50
2023-07-14T02:18:05.183Z,98815.88
2023-07-14T02:20:38.128Z,98823.94
2023-07-14T02:23:08.962Z,98825.66
2023-07-14T02:25:49.329Z,98823.72
2023-07-14T02:28:18.601Z,98835.97
2023-07-14T02:30:51.303Z,98835.97
2023-07-14T02:33:26.432Z,98830.75
2023-07-14T02:36:09.771Z,98815.97
2023-07-14T02:38:41.985Z,98834.31
2023-07-14T02:41:13.731Z,98834.06
2023-07-14T02:43:43.258Z,98839.94
2023-07-14T02:46:19.348Z,98838.91
2023-07-14T02:48:50.508Z,98845.41
2023-07-14T02:51:19.684Z,98852.50
2023-07-14T02:53:48.918Z,98854.06
2023-07-14T02:56:18.929Z,98850.31
2023-07-14T02:58:51.837Z,98849.41
2023-07-14T03:01:21.498Z,98852.81
2023-07-14T03:03:52.238Z,98854.75
2023-07-14T03:06:21.299Z,98851.47
2023-07-14T03:08:51.527Z,98859.78
2023-07-14T03:11:20.931Z,98859.84
2023-07-14T03:13:50.270Z,98857.19
2023-07-14T03:16:19.806Z,98868.84
2023-07-14T03:18:49.718Z,98867.22
2023-07-14T03:21:19.337Z,98863.50
2023-07-14T03:23:49.184Z,98870.13
2023-07-14T03:26:18.694Z,98877.81
2023-07-14T03:28:48.137Z,98873.56
2023-07-14T03:31:17.089Z,98872.59
2023-07-14T03:33:46.105Z,98872.59
2023-07-14T03:36:16.354Z,98878.56
2023-07-14T03:38:46.789Z,98874.19
2023-07-14T03:41:18.442Z,98883.66
2023-07-14T03:43:47.875Z,98879.47
2023-07-14T03:46:17.362Z,98877.47
2023-07-14T03:48:47.489Z,98886.72
2023-07-14T03:51:17.038Z,98884.69
2023-07-14T03:53:47.424Z,98885.09
2023-07-14T03:56:17.158Z,98886.56
2023-07-14T03:58:46.702Z,98887.94
2023-07-14T04:01:17.536Z,98891.66
2023-07-14T04:03:48.335Z,98897.03
2023-07-14T04:06:18.469Z,98896.94
2023-07-14T04:08:48.026Z,98901.25
2023-07-14T04:11:17.349Z,98895.72
2023-07-14T04:13:47.291Z,98899.47
2023-07-14T04:16:16.822Z,98904.09
2023-07-14T04:18:46.725Z,98906.63
2023-07-14T04:21:16.327Z,98911.28
2023-07-14T04:23:46.051Z,98913.66
2023-07-14T04:26:16.465Z,98915.94
2023-07-14T04:28:46.267Z,98913.00
2023-07-14T04:31:16.428Z,98914.06
2023-07-14T04:33:47.068Z,98900.84
2023-07-14T04:36:17.431Z,98907.94
2023-07-14T04:39:23.595Z,98915.97
2023-07-14T04:41:56.707Z,98924.09
2023-07-14T04:45:05.860Z,98934.63
2023-07-14T04:47:36.164Z,98931.34
2023-07-14T04:50:44.831Z,98922.25
2023-07-14T04:53:53.145Z,98923.16
2023-07-14T04:56:23.902Z,98916.63
2023-07-14T04:59:34.638Z,98923.44
2023-07-14T05:02:07.053Z,98923.19
2023-07-14T05:05:00.346Z,98922.81
2023-07-14T05:07:32.733Z,98921.31
2023-07-14T05:10:02.703Z,98921.38
2023-07-14T05:12:32.917Z,98918.88
2023-07-14T05:15:06.257Z,98918.56
2023-07-14T05:17:35.997Z,98923.88
2023-07-14T05:20:12.390Z,98926.59
2023-07-14T05:22:44.207Z,98924.78
2023-07-14T05:25:14.481Z,98928.97
2023-07-14T05:27:47.885Z,98939.59
2023-07-14T05:30:40.902Z,98931.47
2023-07-14T05:33:11.783Z,98940.00
2023-07-14T05:35:42.142Z,98934.94
2023-07-14T05:38:12.075Z,98927.63
2023-07-14T05:40:51.581Z,98932.63
2023-07-14T05:43:27.605Z,98929.34
2023-07-14T05:45:57.334Z,98926.69
2023-07-14T05:48:27.180Z,98924.47
2023-07-14T05:50:56.958Z,98922.03
2023-07-14T05:53:27.165Z,98926.31
2023-07-14T05:55:58.712Z,98933.88
2023-07-14T05:58:28.659Z,98939.44
2023-07-14T06:00:58.993Z,98939.25
2023-07-14T06:03:28.731Z,98950.72
2023-07-14T06:05:58.611Z,98940.63
2023-07-14T06:08:28.566Z,98943.91
2023-07-14T06:10:58.376Z,98950.13
2023-07-14T06:13:28.127Z,98953.22
2023-07-14T06:15:57.469Z,98949.00
2023-07-14T06:18:27.034Z,98953.13
2023-07-14T06:20:56.769Z,98949.00
2023-07-14T06:23:28.552Z,98945.06
2023-07-14T06:26:00.013Z,98952.84
2023-07-14T06:28:30.399Z,98950.69
2023-07-14T06:31:03.392Z,98948.06
2023-07-14T06:33:33.681Z,98953.91
2023-07-14T06:36:05.165Z,98961.59
2023-07-14T06:38:35.921Z,98948.00
2023-07-14T06:41:08.952Z,98957.22
2023-07-14T06:43:39.048Z,98957.44
2023-07-14T06:46:08.843Z,98966.38
2023-07-14T06:48:38.797Z,98967.16
2023-07-14T06:51:09.024Z,98967.00
2023-07-14T06:53:38.882Z,98972.94
2023-07-14T06:56:09.298Z,98967.13
2023-07-14T06:58:39.196Z,98978.59
2023-07-14T07:01:09.059Z,98964.50
2023-07-14T07:03:39.300Z,98964.50
2023-07-14T07:06:08.884Z,98974.22
2023-07-14T07:08:39.139Z,98976.31
2023-07-14T07:11:10.750Z,98977.00
2023-07-14T07:13:40.612Z,98979.72
2023-07-14T07:16:10.711Z,98970.94
2023-07-14T07:18:43.361Z,98970.59
2023-07-14T07:21:14.977Z,98971.84
2023-07-14T07:23:44.818Z,98970.13
2023-07-14T07:26:14.836Z,98969.78
2023-07-14T07:28:44.780Z,98974.22
2023-07-14T07:31:16.425Z,98983.44
2023-07-14T07:33:46.182Z,98980.44
2023-07-14T07:36:19.211Z,98990.94
2023-07-14T07:38:52.980Z,98986.47
2023-07-14T07:41:24.253Z,98992.06
2023-07-14T07:43:54.819Z,99000.13
2023-07-14T07:46:24.610Z,99002.25
2023-07-14T07:48:54.567Z,99001.84
2023-07-14T07:51:24.507Z,99009.13
2023-07-14T07:53:56.302Z,99012.53
2023-07-14T07:56:26.126Z,99005.44
2023-07-14T07:58:56.238Z,99009.91
2023-07-14T08:01:28.094Z,99014.16
2023-07-14T08:03:58.282Z,99007.69
2023-07-14T08:06:28.901Z,99014.56
2023-07-14T08:08:59.485Z,99009.22
2023-07-14T08:11:29.014Z,99011.84
2023-07-14T08:14:01.100Z,99012.63
2023-07-14T08:16:31.585Z,99017.47
2023-07-14T08:19:01.399Z,99021.75
2023-07-14T08:21:35.753Z,99015.38
2023-07-14T08:24:07.395Z,99016.69
2023-07-14T08:26:37.544Z,99019.03
2023-07-14T08:29:07.864Z,99025.72
2023-07-14T08:31:37.825Z,99016.28
2023-07-14T08:34:08.993Z,99015.34
2023-07-14T08:36:40.337Z,99020.00
2023-07-14T08:39:10.365Z,99034.28
2023-07-14T08:41:42.410Z,99026.59
2023-07-14T08:44:40.085Z,99032.50
2023-07-14T08:47:17.224Z,99037.38
2023-07-14T08:49:53.112Z,99030.03
2023-07-14T08:52:28.808Z,99039.97
2023-07-14T08:55:14.772Z,99030.81
2023-07-14T08:58:03.553Z,99036.47
2023-07-14T09:00:36.318Z,99035.19
2023-07-14T09:03:13.780Z,99042.94
2023-07-14T09:06:04.507Z,99040.19
2023-07-14T09:08:34.719Z,99041.56
2023-07-14T09:11:18.847Z,99040.94
2023-07-14T09:14:08.519Z,99045.38
2023-07-14T09:16:59.076Z,99041.97
2023-07-14T09:19:55.362Z,99044.41
2023-07-14T09:22:31.763Z,99051.69
2023-07-14T09:25:20.039Z,99050.06
2023-07-14T09:28:31.417Z,99048.13
2023-07-14T09:31:01.866Z,99051.63
2023-07-14T09:33:31.514Z,99050.94
2023-07-14T09:36:01.918Z,99045.47
2023-07-14T09:38:57.216Z,99049.03
2023-07-14T09:41:30.247Z,99041.03
2023-07-14T09:44:03.453Z,99040.13
2023-07-14T09:46:48.088Z,99040.88
2023-07-14T09:49:32.153Z,99036.44
2023-07-14T09:52:12.975Z,99044.78
2023-07-14T09:55:04.904Z,99048.97
2023-07-14T09:57:41.509Z,99042.31
2023-07-14T10:00:48.171Z,99045.13
2023-07-14T10:03:29.049Z,99045.38
2023-07-14T10:06:13.930Z,99041.66
2023-07-14T10:08:46.284Z,99044.34
2023-07-14T10:11:30.372Z,99047.69
2023-07-14T10:14:02.616Z,99047.38
2023-07-14T10:16:34.113Z,99053.88
2023-07-14T10:19:42.947Z,99062.22
2023-07-14T10:22:11.678Z,99062.81
2023-07-14T10:24:45.586Z,99076.28
2023-07-14T10:27:20.963Z,99079.41
2023-07-14T10:29:59.580Z,99074.38
2023-07-14T10:32:32.776Z,99078.91
2023-07-14T10:35:25.025Z,99081.66
2023-07-14T10:38:06.460Z,99079.09
2023-07-14T10:40:54.196Z,99082.94
2023-07-14T10:43:22.808Z,99070.28
2023-07-14T10:46:02.833Z,99076.13
2023-07-14T10:48:39.204Z,99070.59
2023-07-14T10:51:37.037Z,99082.38
2023-07-14T10:54:11.821Z,99086.19
2023-07-14T10:57:25.034Z,99094.34
2023-07-14T11:00:01.140Z,99092.00
2023-07-14T11:02:40.184Z,99091.13
2023-07-14T11:05:38.210Z,99084.16
2023-07-14T11:08:11.144Z,99091.13
2023-07-14T11:11:41.027Z,99086.94
2023-07-14T11:14:39.742Z,99088.13
2023-07-14T11:17:36.124Z,99093.44
2023-07-14T11:20:32.669Z,99095.88
2023-07-14T11:23:07.770Z,99092.53
2023-07-14T11:25:55.332Z,99091.81
2023-07-14T11:28:30.551Z,99103.09
2023-07-14T11:31:02.339Z,99098.56
2023-07-14T11:34:06.174Z,99109.91
2023-07-14T11:36:36.821Z,99098.44
2023-07-14T11:39:19.782Z,99101.59
2023-07-14T11:41:49.673Z,99105.66
2023-07-14T11:44:20.600Z,99107.41
2023-07-14T11:46:51.408Z,99111.38
2023-07-14T11:49:29.068Z,99108.72
2023-07-14T11:51:59.238Z,99102.44
2023-07-14T11:54:57.282Z,99106.78
2023-07-14T11:57:27.206Z,99109.22
2023-07-14T12:00:15.610Z,99108.31
2023-07-14T12:02:58.287Z,99112.34
2023-07-14T12:08:24.940Z,99116.72
2023-07-14T12:10:54.662Z,99105.81
2023-07-14T12:13:29.314Z,99111.25
2023-07-14T12:15:57.920Z,99103.44
2023-07-14T12:18:34.809Z,99110.81
2023-07-14T12:21:16.082Z,99112.28
2023-07-14T12:23:50.810Z,99112.09
2023-07-14T12:26:36.870Z,99109.38
2023-07-14T12:29:14.231Z,99109.97
2023-07-14T12:31:42.931Z,99107.53
2023-07-14T12:34:23.680Z,99098.47
2023-07-14T12:36:53.742Z,99099.63
2023-07-14T12:39:23.587Z,99101.06
2023-07-14T12:41:53.268Z,99102.97
2023-07-14T12:44:28.504Z,99100.63
2023-07-14T12:46:58.639Z,99104.88
2023-07-14T12:49:41.188Z,99103.81
2023-07-14T12:52:23.592Z,99100.94
2023-07-14T12:54:53.931Z,99098.63
2023-07-14T12:57:23.616Z,99093.66
2023-07-14T12:59:54.258Z,99102.16
2023-07-14T13:02:25.120Z,99102.97
2023-07-14T13:04:55.005Z,99109.91
2023-07-14T13:07:28.039Z,99108.81
2023-07-14T13:10:01.075Z,99110.44
2023-07-14T13:12:32.168Z,99115.28
2023-07-14T13:15:02.801Z,99111.69
2023-07-14T13:17:34.737Z,99113.72
2023-07-14T13:20:22.183Z,99121.31
2023-07-14T13:23:12.642Z,99128.56
2023-07-14T13:25:54.878Z,99128.28
2023-07-14T13:28:50.042Z,99122.47
2023-07-14T13:31:20.946Z,99121.47
2023-07-14T13:33:50.927Z,99121.00
2023-07-14T13:36:36.284Z,99121.06
2023-07-14T13:39:08.396Z,99126.59
2023-07-14T13:41:47.240Z,99126.94
2023-07-14T13:44:32.215Z,99133.47
2023-07-14T13:47:25.312Z,99126.81
2023-07-14T13:49:55.617Z,99134.59
2023-07-14T13:52:34.588Z,99133.50
2023-07-14T13:55:06.637Z,99132.88
2023-07-14T13:57:36.580Z,99135.22
2023-07-14T14:00:12.423Z,99130.22
2023-07-14T14:02:41.877Z,99128.22
2023-07-14T14:05:38.746Z,99129.97
2023-07-14T14:08:14.014Z,99129.97
2023-07-14T14:10:45.065Z,99132.06
2023-07-14T14:13:14.225Z,99125.47
2023-07-14T14:15:48.398Z,99132.63
2023-07-14T14:18:26.750Z,99129.56
2023-07-14T14:20:57.469Z,99147.41
2023-07-14T14:23:27.262Z,99134.56
2023-07-14T14:25:58.475Z,99139.00
2023-07-14T14:28:29.083Z,99142.88
2023-07-14T14:30:59.023Z,99145.06
2023-07-14T14:33:30.464Z,99145.06
2023-07-14T14:36:00.649Z,99138.41
2023-07-14T14:41:30.979Z,99142.16
2023-07-14T14:44:01.095Z,99135.06
2023-07-14T14:46:30.942Z,99132.31
2023-07-14T14:49:00.321Z,99132.75
2023-07-14T14:51:29.820Z,99132.84
2023-07-14T14:53:59.754Z,99125.22
2023-07-14T14:56:33.246Z,99127.47
2023-07-14T14:59:46.779Z,99122.00
2023-07-14T15:02:21.018Z,99125.47
2023-07-14T15:04:51.200Z,99118.53
2023-07-14T15:07:20.623Z,99124.06
2023-07-14T15:09:50.533Z,99122.78
2023-07-14T15:12:26.237Z,99124.63
2023-07-14T15:14:56.593Z,99129.56
2023-07-14T15:17:28.583Z,99135.75
2023-07-14T15:19:58.458Z,99130.63
2023-07-14T15:22:29.156Z,99135.31
2023-07-14T15:24:59.225Z,99135.88
2023-07-14T15:27:35.978Z,99144.09
2023-07-14T15:30:29.297Z,99144.34
2023-07-14T15:33:00.889Z,99145.06
2023-07-14T15:35:37.655Z,99144.66
2023-07-14T15:38:17.923Z,99140.47
2023-07-14T15:40:54.994Z,99134.78
2023-07-14T15:43:48.975Z,99136.41
2023-07-14T15:46:19.872Z,99141.25
2023-07-14T15:48:49.429Z,99135.63
2023-07-14T15:51:45.629Z,99140.72
2023-07-14T15:54:35.955Z,99138.63
2023-07-14T15:57:07.619Z,99135.56
2023-07-14T15:59:38.275Z,99132.47
2023-07-14T16:02:17.067Z,99133.69
2023-07-14T16:04:47.042Z,99128.25
2023-07-14T16:07:16.794Z,99131.78
2023-07-14T16:09:45.959Z,99124.63
2023-07-14T16:12:17.159Z,99128.66
2023-07-14T16:14:46.808Z,99125.53
2023-07-14T16:17:16.986Z,99115.81
2023-07-14T16:19:47.627Z,99114.47
2023-07-14T16:22:18.909Z,99116.00
2023-07-14T16:24:52.782Z,99115.75
2023-07-14T16:27:29.203Z,99112.13
2023-07-14T16:29:59.323Z,99105.50
2023-07-14T16:32:29.288Z,99113.22
2023-07-14T16:35:02.743Z,99109.81
2023-07-14T16:37:33.448Z,99108.16
2023-07-14T16:40:03.233Z,99102.78
2023-07-14T16:42:33.564Z,99105.78
2023-07-14T16:45:04.094Z,99117.38
2023-07-14T16:47:34.083Z,99115.13
2023-07-14T16:50:11.366Z,99120.63
2023-07-14T16:52:41.724Z,99120.00
2023-07-14T16:55:19.160Z,99113.09
2023-07-14T16:57:48.762Z,99119.06
2023-07-14T17:00:28.406Z,99123.59
2023-07-14T17:03:05.164Z,99117.38
2023-07-14T17:05:34.812Z,99123.28
2023-07-14T17:08:04.870Z,99120.13
2023-07-14T17:10:34.795Z,99128.00
2023-07-14T17:13:20.359Z,99125.91
2023-07-14T17:15:55.646Z,99130.25
2023-07-14T17:18:27.961Z,99134.53
2023-07-14T17:20:57.848Z,99137.06
2023-07-14T17:23:55.342Z,99134.38
2023-07-14T17:26:27.352Z,99135.22
2023-07-14T17:28:57.107Z,99132.41
2023-07-14T17:31:26.907Z,99126.25
2023-07-14T17:33:56.612Z,99132.38
2023-07-14T17:36:27.642Z,99138.09
2023-07-14T17:38:57.264Z,99136.13
2023-07-14T17:41:28.676Z,99135.59
2023-07-14T17:44:00.448Z,99135.63
2023-07-14T17:46:30.431Z,99126.78
2023-07-14T17:49:01.438Z,99131.03
2023-07-14T17:51:31.151Z,99133.59
2023-07-14T17:54:03.382Z,99132.34
2023-07-14T17:56:33.757Z,99144.22
2023-07-14T17:59:03.492Z,99147.44
2023-07-14T18:01:33.053Z,99139.63
2023-07-14T18:04:03.047Z,99140.06
2023-07-14T18:06:32.559Z,99146.09
2023-07-14T18:09:02.233Z,99138.38
2023-07-14T18:11:32.053Z,99146.84
2023-07-14T18:14:01.541Z,99143.75
2023-07-14T18:16:31.661Z,99142.84
2023-07-14T18:19:01.245Z,99137.84
2023-07-14T18:21:31.236Z,99140.19
2023-07-14T18:24:04.815Z,99132.19
2023-07-14T18:26:34.574Z,99134.03
2023-07-14T18:29:05.835Z,99139.41
2023-07-14T18:31:37.180Z,99131.81
2023-07-14T18:34:06.953Z,99134.31
2023-07-14T18:36:36.824Z,99126.78
2023-07-14T18:39:06.790Z,99125.53
2023-07-14T18:41:36.483Z,99135.88
2023-07-14T18:44:10.113Z,99134.91
2023-07-14T18:46:39.975Z,99129.41
2023-07-14T18:49:23.497Z,99129.66
2023-07-14T18:51:52.567Z,99125.06
2023-07-14T18:54:25.633Z,99123.50
2023-07-14T18:57:14.813Z,99122.38
2023-07-14T18:59:44.708Z,99111.75
2023-07-14T19:02:41.481Z,99105.00
2023-07-14T19:05:14.473Z,99115.41
2023-07-14T19:07:47.806Z,99133.06
2023-07-14T19:10:18.006Z,99129.78
2023-07-14T19:12:48.450Z,99138.91
2023-07-14T19:15:22.397Z,99138.78
2023-07-14T19:17:53.153Z,99142.50
2023-07-14T19:20:24.942Z,99137.22
2023-07-14T19:22:55.722Z,99134.81
2023-07-14T19:25:25.786Z,99139.16
2023-07-14T19:27:56.066Z,99137.38
2023-07-14T19:30:25.516Z,99141.47
2023-07-14T19:32:55.864Z,99138.22
2023-07-14T19:35:25.726Z,99140.09
2023-07-14T19:37:55.669Z,99149.78
2023-07-14T19:40:26.451Z,99150.94
2023-07-14T19:42:56.475Z,99158.34
2023-07-14T19:45:29.522Z,99159.38
2023-07-14T19:47:59.893Z,99149.28
2023-07-14T19:50:29.650Z,99150.00
2023-07-14T19:53:00.328Z,99149.91
2023-07-14T19:55:30.340Z,99152.19
2023-07-14T19:58:01.258Z,99149.56
2023-07-14T20:00:32.744Z,99144.22
2023-07-14T20:03:04.245Z,99144.09
2023-07-14T20:05:34.181Z,99138.53
2023-07-14T20:08:05.126Z,99142.78
2023-07-14T20:10:35.401Z,99140.59
2023-07-14T20:13:12.950Z,99142.00
2023-07-14T20:15:42.760Z,99143.53
2023-07-14T20:18:46.431Z,99148.53
2023-07-14T20:21:35.556Z,99151.34
2023-07-14T20:24:17.205Z,99148.06
2023-07-14T20:26:51.322Z,99153.16
2023-07-14T20:29:21.148Z,99155.78
2023-07-14T20:31:55.774Z,99150.91
2023-07-14T20:34:25.505Z,99146.69
2023-07-14T20:36:55.522Z,99154.50
2023-07-14T20:39:27.060Z,99157.69
2023-07-14T20:41:56.804Z,99149.03
2023-07-14T20:44:26.445Z,99147.56
2023-07-14T20:46:56.415Z,99157.31
2023-07-14T20:49:26.240Z,99150.84
2023-07-14T20:51:58.707Z,99161.19
2023-07-14T20:54:29.125Z,99165.78
2023-07-14T20:56:59.650Z,99160.44
2023-07-14T20:59:29.131Z,99166.81
2023-07-14T21:01:59.140Z,99162.66
2023-07-14T21:04:28.630Z,99163.78
2023-07-14T21:06:58.458Z,99161.56
2023-07-14T21:09:29.183Z,99168.81
2023-07-14T21:11:58.788Z,99163.72
2023-07-14T21:14:28.725Z,99175.06
2023-07-14T21:16:58.676Z,99162.31
2023-07-14T21:19:28.543Z,99164.00
2023-07-14T21:21:58.753Z,99156.91
2023-07-14T21:24:29.857Z,99157.75
2023-07-14T21:26:59.586Z,99155.81
2023-07-14T21:29:29.067Z,99151.63
2023-07-14T21:31:58.440Z,99155.59
2023-07-14T21:34:28.040Z,99159.69
2023-07-14T21:36:58.080Z,99159.56
2023-07-14T21:39:27.902Z,99150.16
2023-07-14T21:41:57.347Z,99159.81
2023-07-14T21:44:27.386Z,99165.66
2023-07-14T21:46:57.123Z,99168.19
2023-07-14T21:49:26.648Z,99171.78
2023-07-14T21:51:55.990Z,99179.63
2023-07-14T21:54:27.940Z,99169.94
2023-07-14T21:56:57.757Z,99186.69
2023-07-14T21:59:27.237Z,99180.91
2023-07-14T22:01:56.540Z,99176.94
2023-07-14T22:04:35.536Z,99175.47
2023-07-14T22:07:09.303Z,99179.19
2023-07-14T22:09:39.003Z,99178.56
2023-07-14T22:12:38.262Z,99176.84
2023-07-14T22:15:14.788Z,99185.94
2023-07-14T22:17:44.072Z,99186.00
2023-07-14T22:20:18.919Z,99177.13
2023-07-14T22:22:49.143Z,99179.47
2023-07-14T22:25:19.277Z,99181.00
2023-07-14T22:27:48.729Z,99182.81
2023-07-14T22:30:19.934Z,99183.69
2023-07-14T22:32:49.398Z,99178.03
2023-07-14T22:35:19.778Z,99172.81
2023-07-14T22:37:49.536Z,99167.59
2023-07-14T22:40:19.516Z,99177.88
2023-07-14T22:42:49.204Z,99175.88
2023-07-14T22:45:19.590Z,99168.84
2023-07-14T22:47:49.721Z,99170.00
2023-07-14T22:50:19.514Z,99181.75
2023-07-14T22:52:49.405Z,99179.31
2023-07-14T22:55:21.763Z,99177.53
2023-07-14T22:57:51.576Z,99171.38
2023-07-14T23:00:21.249Z,99170.91
2023-07-14T23:02:51.294Z,99179.06
2023-07-14T23:05:26.966Z,99181.13
2023-07-14T23:07:56.655Z,99174.06
2023-07-14T23:10:26.536Z,99170.13
2023-07-14T23:13:00.230Z,99173.16
2023-07-14T23:15:30.156Z,99178.19
2023-07-14T23:18:00.414Z,99180.84
2023-07-14T23:20:30.273Z,99171.16
2023-07-14T23:22:59.744Z,99171.88
2023-07-14T23:25:29.772Z,99168.13
2023-07-14T23:27:59.749Z,99170.41
2023-07-14T23:30:29.754Z,99167.00
2023-07-14T23:32:59.537Z,99161.88
2023-07-14T23:35:31.907Z,99159.22
2023-07-14T23:38:01.742Z,99160.69
2023-07-14T23:40:31.720Z,99157.09
2023-07-14T23:43:02.382Z,99159.78
2023-07-14T23:45:33.111Z,99151.28
2023-07-14T23:48:03.138Z,99154.09
2023-07-14T23:50:33.370Z,99157.94
2023-07-14T23:53:06.916Z,99155.81
2023-07-14T23:55:36.807Z,99157.28
2023-07-14T23:58:06.693Z,99154.84
